Time;durP1;ratioP1;P1;durP2;ratioP2;P2;SDS_P1;SDS_P2;PMS_P1;PMS_P2;Temp;Humidity;BMP_temperature;BMP_pressure;BME280_temperature;BME280_humidity;BME280_pressure;Samples;Min_cycle;Max_cycle;Signal;HPM_P1;HPM_P2
2023/04/19 00:01:43;;;;;;;6.28;2.50;;;;;;;;;;5106466;28;20034;-61
2023/04/19 00:04:08;;;;;;;4.65;2.60;;;;;;;;;;5106886;28;20475;-60
2023/04/19 00:06:34;;;;;;;6.22;3.17;;;;;;;;;;5106259;28;20106;-61
2023/04/19 00:08:59;;;;;;;5.03;2.90;;;;;;;;;;5106537;28;20411;-60
2023/04/19 00:11:24;;;;;;;4.30;2.85;;;;;;;;;;5105014;28;20024;-60
2023/04/19 00:13:50;;;;;;;11.85;3.05;;;;;;;;;;5086756;28;20122;-58
2023/04/19 00:16:15;;;;;;;6.32;2.75;;;;;;;;;;5106413;28;20034;-60
2023/04/19 00:18:41;;;;;;;7.22;3.17;;;;;;;;;;5105820;27;20488;-60
2023/04/19 00:21:07;;;;;;;7.13;3.20;;;;;;;;;;5103364;28;20030;-60
2023/04/19 00:23:32;;;;;;;5.00;3.25;;;;;;;;;;5102771;28;20470;-60
2023/04/19 00:25:57;;;;;;;7.82;3.45;;;;;;;;;;5103416;28;20110;-60
2023/04/19 00:28:23;;;;;;;4.80;3.17;;;;;;;;;;5102901;28;20038;-62
2023/04/19 00:30:49;;;;;;;5.63;3.17;;;;;;;;;;5103774;28;20445;-60
2023/04/19 00:33:14;;;;;;;5.05;2.95;;;;;;;;;;5102947;28;20051;-60
2023/04/19 00:35:40;;;;;;;4.25;3.00;;;;;;;;;;5102883;28;20035;-59
2023/04/19 00:38:06;;;;;;;4.82;2.83;;;;;;;;;;5102806;28;20032;-61
2023/04/19 00:40:31;;;;;;;5.30;2.55;;;;;;;;;;5103426;28;20042;-60
2023/04/19 00:42:56;;;;;;;6.63;3.28;;;;;;;;;;5102892;28;20541;-60
2023/04/19 00:45:21;;;;;;;9.40;3.22;;;;;;;;;;5103244;28;20031;-60
2023/04/19 00:47:47;;;;;;;5.75;2.97;;;;;;;;;;5094887;28;20028;-60
2023/04/19 00:50:12;;;;;;;3.90;2.90;;;;;;;;;;5082941;28;20395;-60
2023/04/19 00:52:38;;;;;;;4.25;2.47;;;;;;;;;;5084642;28;20530;-60
2023/04/19 00:55:04;;;;;;;7.20;3.63;;;;;;;;;;5085993;28;20022;-59
2023/04/19 00:57:30;;;;;;;5.38;3.08;;;;;;;;;;5085927;28;20011;-60
2023/04/19 00:59:55;;;;;;;5.32;3.58;;;;;;;;;;5085374;28;20016;-59
2023/04/19 01:02:21;;;;;;;6.88;3.15;;;;;;;;;;5085458;28;20040;-61
2023/04/19 01:04:46;;;;;;;6.45;3.53;;;;;;;;;;5085536;28;20028;-60
2023/04/19 01:07:12;;;;;;;7.20;3.75;;;;;;;;;;5085348;28;20566;-61
2023/04/19 01:09:42;;;;;;;5.25;3.40;;;;;;;;;;5085475;28;20414;-58
2023/04/19 01:12:07;;;;;;;7.65;3.15;;;;;;;;;;5085230;28;20387;-60
2023/04/19 01:14:33;;;;;;;9.00;3.17;;;;;;;;;;5085288;28;20040;-60
2023/04/19 01:16:58;;;;;;;8.13;3.83;;;;;;;;;;5083780;28;20020;-60
2023/04/19 01:19:23;;;;;;;4.70;3.33;;;;;;;;;;5085376;28;20024;-60
2023/04/19 01:21:49;;;;;;;8.93;3.50;;;;;;;;;;5085088;28;20115;-61
2023/04/19 01:24:14;;;;;;;4.80;3.13;;;;;;;;;;5085196;28;20032;-58
2023/04/19 01:26:39;;;;;;;7.18;3.83;;;;;;;;;;5085493;28;20058;-60
2023/04/19 01:29:05;;;;;;;6.47;3.70;;;;;;;;;;5085257;28;20475;-61
2023/04/19 01:31:30;;;;;;;6.28;3.42;;;;;;;;;;5084714;28;20028;-59
2023/04/19 01:33:55;;;;;;;4.57;3.25;;;;;;;;;;5085673;28;20037;-60
2023/04/19 01:36:20;;;;;;;8.60;3.50;;;;;;;;;;5089024;28;20073;-61
2023/04/19 01:38:48;;;;;;;6.72;3.83;;;;;;;;;;5089527;28;20059;-60
2023/04/19 01:41:14;;;;;;;5.28;3.92;;;;;;;;;;5089714;28;20118;-59
2023/04/19 01:43:39;;;;;;;7.70;3.97;;;;;;;;;;5088916;28;20528;-61
2023/04/19 01:46:05;;;;;;;4.63;3.60;;;;;;;;;;5069721;28;20066;-61
2023/04/19 01:48:30;;;;;;;7.10;3.50;;;;;;;;;;5089178;28;20046;-60
2023/04/19 01:50:55;;;;;;;8.68;4.07;;;;;;;;;;5089168;28;20103;-61
2023/04/19 01:53:21;;;;;;;7.82;3.60;;;;;;;;;;5095367;28;20471;-59
2023/04/19 01:55:46;;;;;;;5.97;3.72;;;;;;;;;;5109860;28;20034;-58
2023/04/19 01:58:11;;;;;;;6.97;3.38;;;;;;;;;;5109090;28;20053;-60
2023/04/19 02:00:36;;;;;;;7.28;3.75;;;;;;;;;;5109238;28;20035;-59
2023/04/19 02:03:02;;;;;;;6.65;3.50;;;;;;;;;;5108856;28;20038;-60
2023/04/19 02:05:27;;;;;;;6.22;4.20;;;;;;;;;;5109080;28;20441;-60
2023/04/19 02:07:52;;;;;;;5.93;3.47;;;;;;;;;;5108756;28;20458;-60
2023/04/19 02:10:18;;;;;;;7.50;3.58;;;;;;;;;;5109327;28;20254;-60
2023/04/19 02:12:43;;;;;;;8.32;3.88;;;;;;;;;;5109113;28;20036;-60
2023/04/19 02:15:08;;;;;;;8.00;4.50;;;;;;;;;;5108843;27;20459;-59
2023/04/19 02:17:34;;;;;;;8.75;4.38;;;;;;;;;;5108852;28;20027;-60
2023/04/19 02:20:00;;;;;;;8.50;4.85;;;;;;;;;;5109089;28;20426;-60
2023/04/19 02:22:25;;;;;;;6.78;4.47;;;;;;;;;;5108777;28;20027;-59
2023/04/19 02:24:50;;;;;;;8.52;3.50;;;;;;;;;;5108583;28;20023;-59
2023/04/19 02:27:15;;;;;;;9.65;4.07;;;;;;;;;;5108814;28;20511;-60
2023/04/19 02:29:41;;;;;;;11.05;4.85;;;;;;;;;;5108247;28;20027;-58
2023/04/19 02:32:06;;;;;;;8.90;3.88;;;;;;;;;;5108452;28;20027;-61
2023/04/19 02:34:32;;;;;;;8.02;4.00;;;;;;;;;;5108221;28;20046;-61
2023/04/19 02:36:57;;;;;;;7.20;3.83;;;;;;;;;;5108470;28;20048;-60
2023/04/19 02:39:22;;;;;;;6.45;4.07;;;;;;;;;;5108562;27;20023;-60
2023/04/19 02:41:48;;;;;;;8.10;4.78;;;;;;;;;;5108300;28;20074;-61
2023/04/19 02:44:13;;;;;;;6.93;4.38;;;;;;;;;;5108195;27;20510;-60
2023/04/19 02:46:38;;;;;;;8.02;4.80;;;;;;;;;;5107628;28;20024;-60
2023/04/19 02:49:04;;;;;;;7.22;4.63;;;;;;;;;;5108502;28;20077;-60
2023/04/19 02:51:29;;;;;;;8.07;4.20;;;;;;;;;;5105675;28;20027;-58
2023/04/19 02:53:54;;;;;;;8.50;5.13;;;;;;;;;;5087849;28;20047;-60
2023/04/19 02:56:20;;;;;;;10.23;5.22;;;;;;;;;;5087618;28;20762;-62
2023/04/19 02:58:45;;;;;;;9.10;4.60;;;;;;;;;;5087843;28;20059;-60
2023/04/19 03:01:11;;;;;;;9.15;5.15;;;;;;;;;;5087606;28;20020;-60
2023/04/19 03:03:36;;;;;;;10.00;4.28;;;;;;;;;;5087807;28;20039;-60
2023/04/19 03:06:01;;;;;;;8.35;4.75;;;;;;;;;;5087401;28;20471;-60
2023/04/19 03:08:27;;;;;;;20.17;4.47;;;;;;;;;;5087216;28;20044;-61
2023/04/19 03:10:52;;;;;;;8.80;4.40;;;;;;;;;;5087599;28;20506;-60
2023/04/19 03:13:17;;;;;;;6.93;4.63;;;;;;;;;;5087449;28;20479;-61
2023/04/19 03:15:43;;;;;;;8.10;4.55;;;;;;;;;;5087395;28;20395;-60
2023/04/19 03:18:08;;;;;;;10.02;4.50;;;;;;;;;;5085893;28;20020;-60
2023/04/19 03:20:33;;;;;;;8.52;4.75;;;;;;;;;;5087389;28;20456;-60
2023/04/19 03:22:58;;;;;;;8.27;4.07;;;;;;;;;;5087417;28;20153;-60
2023/04/19 03:25:24;;;;;;;7.50;4.60;;;;;;;;;;5087389;28;20204;-59
2023/04/19 03:27:50;;;;;;;14.13;4.50;;;;;;;;;;5086062;28;20471;-60
2023/04/19 03:30:16;;;;;;;7.78;4.20;;;;;;;;;;5068718;28;20020;-59
2023/04/19 03:32:42;;;;;;;9.95;4.30;;;;;;;;;;5087414;28;20020;-60
2023/04/19 03:35:08;;;;;;;9.80;4.72;;;;;;;;;;5086895;28;20028;-60
2023/04/19 03:37:33;;;;;;;8.20;4.43;;;;;;;;;;5086976;28;20044;-60
2023/04/19 03:39:59;;;;;;;11.07;4.50;;;;;;;;;;5086635;28;20178;-59
2023/04/19 03:42:24;;;;;;;7.78;4.90;;;;;;;;;;5087533;28;20047;-59
2023/04/19 03:44:49;;;;;;;7.68;4.40;;;;;;;;;;5087348;28;20031;-58
2023/04/19 03:47:14;;;;;;;11.27;3.95;;;;;;;;;;5087064;28;20020;-60
2023/04/19 03:49:40;;;;;;;9.70;5.05;;;;;;;;;;5086639;28;20870;-60
2023/04/19 03:52:05;;;;;;;9.75;5.30;;;;;;;;;;5086480;28;20038;-59
2023/04/19 03:54:30;;;;;;;9.10;4.82;;;;;;;;;;5098596;28;20023;-58
2023/04/19 03:56:56;;;;;;;12.07;5.45;;;;;;;;;;5107197;28;20055;-62
2023/04/19 03:59:21;;;;;;;9.20;4.68;;;;;;;;;;5105576;28;20023;-61
2023/04/19 04:04:30;;;;;;;9.88;5.05;;;;;;;;;;5106608;28;20030;-58
2023/04/19 04:06:56;;;;;;;7.57;4.85;;;;;;;;;;5106341;28;20020;-60
2023/04/19 04:09:21;;;;;;;7.45;4.63;;;;;;;;;;5106481;28;20027;-59
2023/04/19 04:11:46;;;;;;;7.32;4.60;;;;;;;;;;5106823;28;20019;-59
2023/04/19 04:14:11;;;;;;;11.25;5.72;;;;;;;;;;5106361;28;20037;-61
2023/04/19 04:16:37;;;;;;;6.72;4.43;;;;;;;;;;5103784;28;20114;-61
2023/04/19 04:19:02;;;;;;;8.25;4.82;;;;;;;;;;5103786;28;20524;-58
2023/04/19 04:21:27;;;;;;;6.95;4.47;;;;;;;;;;5103828;28;20110;-58
2023/04/19 04:23:52;;;;;;;9.35;4.82;;;;;;;;;;5103804;28;20023;-59
2023/04/19 04:26:19;;;;;;;11.88;5.28;;;;;;;;;;5103451;28;20027;-61
2023/04/19 04:28:44;;;;;;;9.65;5.10;;;;;;;;;;5103490;28;20077;-60
2023/04/19 04:31:11;;;;;;;7.78;4.25;;;;;;;;;;5103749;28;20039;-59
2023/04/19 04:33:37;;;;;;;7.05;4.47;;;;;;;;;;5103299;28;20105;-60
2023/04/19 04:36:02;;;;;;;8.45;4.90;;;;;;;;;;5103172;28;20419;-59
2023/04/19 04:38:28;;;;;;;10.10;5.32;;;;;;;;;;5103033;28;20578;-61
2023/04/19 04:40:54;;;;;;;9.45;4.75;;;;;;;;;;5103673;28;20189;-60
2023/04/19 04:43:20;;;;;;;5.88;4.35;;;;;;;;;;5103470;28;20040;-60
2023/04/19 04:45:46;;;;;;;7.90;4.40;;;;;;;;;;5085944;28;20667;-60
2023/04/19 04:48:11;;;;;;;10.90;4.80;;;;;;;;;;5105273;28;20463;-60
2023/04/19 04:50:36;;;;;;;9.43;5.10;;;;;;;;;;5105930;28;20023;-60
2023/04/19 04:53:02;;;;;;;8.27;4.55;;;;;;;;;;5090447;28;20055;-63
2023/04/19 04:55:27;;;;;;;6.05;4.00;;;;;;;;;;5085944;28;20431;-59
2023/04/19 04:57:52;;;;;;;8.48;4.35;;;;;;;;;;5085587;28;20028;-60
2023/04/19 05:00:18;;;;;;;8.73;4.78;;;;;;;;;;5099258;28;20481;-60
2023/04/19 05:02:43;;;;;;;13.70;5.18;;;;;;;;;;5106322;28;20070;-63
2023/04/19 05:05:10;;;;;;;8.65;4.35;;;;;;;;;;5092082;28;20020;-59
2023/04/19 05:07:35;;;;;;;10.55;4.38;;;;;;;;;;5084558;28;20048;-59
2023/04/19 05:10:00;;;;;;;6.57;3.90;;;;;;;;;;5097320;28;20133;-60
2023/04/19 05:12:26;;;;;;;6.88;4.20;;;;;;;;;;5106424;28;20474;-60
2023/04/19 05:14:52;;;;;;;7.55;4.38;;;;;;;;;;5105232;28;20019;-61
2023/04/19 05:17:17;;;;;;;7.18;4.32;;;;;;;;;;5105695;28;20447;-61
2023/04/19 05:19:42;;;;;;;8.45;4.15;;;;;;;;;;5106175;28;20030;-58
2023/04/19 05:22:08;;;;;;;11.27;4.72;;;;;;;;;;5106339;28;20051;-61
2023/04/19 05:24:33;;;;;;;9.50;3.97;;;;;;;;;;5105648;28;20524;-58
2023/04/19 05:26:58;;;;;;;8.63;4.30;;;;;;;;;;5105632;28;20019;-59
2023/04/19 05:29:24;;;;;;;10.43;4.03;;;;;;;;;;5105458;28;20617;-60
2023/04/19 05:31:49;;;;;;;7.25;4.20;;;;;;;;;;5105761;28;20253;-61
2023/04/19 05:34:14;;;;;;;11.05;4.00;;;;;;;;;;5105786;28;20088;-61
2023/04/19 05:36:40;;;;;;;7.70;4.38;;;;;;;;;;5097623;28;20103;-60
2023/04/19 05:39:05;;;;;;;7.20;3.83;;;;;;;;;;5085932;28;20058;-59
2023/04/19 05:41:30;;;;;;;10.52;4.32;;;;;;;;;;5085324;28;20027;-60
2023/04/19 05:43:56;;;;;;;9.45;4.47;;;;;;;;;;5085062;28;20074;-59
2023/04/19 05:46:21;;;;;;;7.35;4.03;;;;;;;;;;5085164;28;20399;-61
2023/04/19 05:48:46;;;;;;;6.90;3.97;;;;;;;;;;5084706;28;20019;-58
2023/04/19 05:51:13;;;;;;;7.07;4.50;;;;;;;;;;5085406;28;20360;-59
2023/04/19 05:53:38;;;;;;;6.45;4.22;;;;;;;;;;5065353;28;20115;-60
2023/04/19 05:56:03;;;;;;;8.13;4.00;;;;;;;;;;5086865;28;20107;-59
2023/04/19 05:58:29;;;;;;;6.72;3.90;;;;;;;;;;5083770;28;20249;-60
2023/04/19 06:00:54;;;;;;;8.82;4.07;;;;;;;;;;5086179;28;20274;-60
2023/04/19 06:03:19;;;;;;;6.88;3.85;;;;;;;;;;5079675;28;20118;-57
2023/04/19 06:05:45;;;;;;;7.35;4.00;;;;;;;;;;5069860;28;20389;-58
2023/04/19 06:08:10;;;;;;;8.30;3.70;;;;;;;;;;5080781;28;20075;-57
2023/04/19 06:10:36;;;;;;;5.90;3.80;;;;;;;;;;5082047;28;20261;-59
2023/04/19 06:13:01;;;;;;;5.68;3.85;;;;;;;;;;5084733;28;20016;-58
2023/04/19 06:15:27;;;;;;;5.27;3.77;;;;;;;;;;5084737;28;20516;-60
2023/04/19 06:17:52;;;;;;;7.50;4.53;;;;;;;;;;5084196;28;20655;-60
2023/04/19 06:20:17;;;;;;;9.02;4.22;;;;;;;;;;5083216;28;20066;-59
2023/04/19 06:22:44;;;;;;;7.78;4.28;;;;;;;;;;5087815;28;20426;-57
2023/04/19 06:25:09;;;;;;;5.40;4.00;;;;;;;;;;5074082;28;20027;-57
2023/04/19 06:27:34;;;;;;;12.00;4.10;;;;;;;;;;5078230;28;20020;-58
2023/04/19 06:30:00;;;;;;;9.35;3.90;;;;;;;;;;5089812;28;20858;-57
2023/04/19 06:32:25;;;;;;;10.75;4.05;;;;;;;;;;5067090;28;20067;-60
2023/04/19 06:34:50;;;;;;;6.70;4.22;;;;;;;;;;5078140;28;20039;-57
2023/04/19 06:37:16;;;;;;;7.63;3.63;;;;;;;;;;5076355;28;20028;-57
2023/04/19 06:39:41;;;;;;;9.40;4.10;;;;;;;;;;5080934;28;20264;-56
2023/04/19 06:42:06;;;;;;;5.80;4.32;;;;;;;;;;5081206;28;20464;-59
2023/04/19 06:44:32;;;;;;;7.72;4.70;;;;;;;;;;5077141;28;20099;-56
2023/04/19 06:46:57;;;;;;;5.55;4.25;;;;;;;;;;5074788;28;20131;-56
2023/04/19 06:49:22;;;;;;;12.65;4.72;;;;;;;;;;5080256;28;20043;-58
2023/04/19 06:51:48;;;;;;;4.80;3.60;;;;;;;;;;5080853;28;20446;-55
2023/04/19 06:54:13;;;;;;;15.48;5.47;;;;;;;;;;5079167;28;20268;-55
2023/04/19 06:56:44;;;;;;;9.07;4.45;;;;;;;;;;5078653;28;20073;-59
2023/04/19 06:59:10;;;;;;;9.27;4.70;;;;;;;;;;5075533;28;20021;-61
2023/04/19 07:01:35;;;;;;;11.90;4.57;;;;;;;;;;5083338;28;20063;-63
2023/04/19 07:04:01;;;;;;;12.63;4.53;;;;;;;;;;5083923;28;20036;-60
2023/04/19 07:06:26;;;;;;;11.55;5.22;;;;;;;;;;5078348;28;20760;-64
2023/04/19 07:08:51;;;;;;;13.93;5.10;;;;;;;;;;5084364;28;20448;-59
2023/04/19 07:11:16;;;;;;;10.03;5.27;;;;;;;;;;5083237;28;20288;-55
2023/04/19 07:13:42;;;;;;;15.23;6.20;;;;;;;;;;5067785;28;20276;-65
2023/04/19 07:16:07;;;;;;;26.75;9.85;;;;;;;;;;5080017;28;20257;-65
2023/04/19 07:18:32;;;;;;;25.10;8.80;;;;;;;;;;5082263;28;20020;-61
2023/04/19 07:20:58;;;;;;;25.83;8.45;;;;;;;;;;5087380;28;20694;-59
2023/04/19 07:23:23;;;;;;;15.27;6.60;;;;;;;;;;5087669;28;20427;-62
2023/04/19 07:25:48;;;;;;;19.88;6.80;;;;;;;;;;5082258;28;20344;-58
2023/04/19 07:28:14;;;;;;;14.73;5.90;;;;;;;;;;5077734;28;20052;-60
2023/04/19 07:30:40;;;;;;;15.18;6.07;;;;;;;;;;5073406;28;20253;-60
2023/04/19 07:33:07;;;;;;;21.70;6.15;;;;;;;;;;5070096;28;20072;-60
2023/04/19 07:35:32;;;;;;;15.15;6.57;;;;;;;;;;5076432;28;20384;-60
2023/04/19 07:37:57;;;;;;;27.50;6.97;;;;;;;;;;5095000;28;20024;-60
2023/04/19 07:40:23;;;;;;;9.50;5.60;;;;;;;;;;5097013;28;20102;-61
2023/04/19 07:42:48;;;;;;;13.20;5.88;;;;;;;;;;5072387;28;20280;-61
2023/04/19 07:45:13;;;;;;;10.70;5.55;;;;;;;;;;5085697;28;20020;-60
2023/04/19 07:47:39;;;;;;;11.02;6.63;;;;;;;;;;5087409;28;20421;-61
2023/04/19 07:50:06;;;;;;;10.53;5.90;;;;;;;;;;5084390;28;20530;-61
2023/04/19 07:52:31;;;;;;;14.65;5.65;;;;;;;;;;5081468;28;20309;-58
2023/04/19 07:54:57;;;;;;;10.52;5.43;;;;;;;;;;5088404;28;20024;-69
2023/04/19 07:57:22;;;;;;;11.57;6.03;;;;;;;;;;5081716;28;20113;-58
2023/04/19 07:59:47;;;;;;;14.43;6.90;;;;;;;;;;5077992;28;20036;-60
2023/04/19 08:02:15;;;;;;;12.25;6.10;;;;;;;;;;5091748;28;20054;-58
2023/04/19 08:04:40;;;;;;;11.38;5.72;;;;;;;;;;5079860;28;20104;-58
2023/04/19 08:07:05;;;;;;;7.78;5.72;;;;;;;;;;5084647;28;20078;-60
2023/04/19 08:09:32;;;;;;;12.32;6.53;;;;;;;;;;5071621;28;20086;-59
2023/04/19 08:11:57;;;;;;;15.73;8.48;;;;;;;;;;5083912;28;20020;-61
2023/04/19 08:14:23;;;;;;;12.27;7.05;;;;;;;;;;5083475;28;20024;-60
2023/04/19 08:16:48;;;;;;;20.05;9.25;;;;;;;;;;5084230;28;20023;-60
2023/04/19 08:19:13;;;;;;;23.50;9.27;;;;;;;;;;5087568;28;20031;-58
2023/04/19 08:21:39;;;;;;;17.40;7.15;;;;;;;;;;5079046;28;20600;-60
2023/04/19 08:24:04;;;;;;;18.75;5.90;;;;;;;;;;5079936;28;20114;-58
2023/04/19 08:26:30;;;;;;;10.73;5.53;;;;;;;;;;5097145;28;20020;-57
2023/04/19 08:28:55;;;;;;;20.17;9.90;;;;;;;;;;5105861;28;20069;-59
2023/04/19 08:31:20;;;;;;;13.40;6.97;;;;;;;;;;5086753;28;20652;-58
2023/04/19 08:33:46;;;;;;;16.55;6.30;;;;;;;;;;5081356;28;20261;-58
2023/04/19 08:36:11;;;;;;;23.77;7.60;;;;;;;;;;5080557;28;20074;-58
2023/04/19 08:38:37;;;;;;;13.23;6.33;;;;;;;;;;5075563;28;20032;-50
2023/04/19 08:41:03;;;;;;;22.65;8.48;;;;;;;;;;5082520;28;20998;-59
2023/04/19 08:43:32;;;;;;;11.48;5.88;;;;;;;;;;5071177;28;20032;-58
2023/04/19 08:45:57;;;;;;;12.68;6.25;;;;;;;;;;5071584;28;20479;-59
2023/04/19 08:48:23;;;;;;;13.70;7.80;;;;;;;;;;5066428;28;20040;-59
2023/04/19 08:50:49;;;;;;;21.75;7.13;;;;;;;;;;5077415;28;20126;-59
2023/04/19 08:53:15;;;;;;;14.10;7.07;;;;;;;;;;5071727;28;20031;-59
2023/04/19 08:55:41;;;;;;;11.07;6.13;;;;;;;;;;5069835;28;20056;-58
2023/04/19 08:58:06;;;;;;;9.65;6.18;;;;;;;;;;5063794;28;20016;-60
2023/04/19 09:00:32;;;;;;;8.60;5.72;;;;;;;;;;5078040;28;20020;-58
2023/04/19 09:02:58;;;;;;;10.48;6.00;;;;;;;;;;5086058;28;20403;-58
2023/04/19 09:05:23;;;;;;;13.20;6.60;;;;;;;;;;5074927;28;20469;-59
2023/04/19 09:07:48;;;;;;;8.90;6.50;;;;;;;;;;5087125;28;20052;-58
2023/04/19 09:10:15;;;;;;;13.85;6.80;;;;;;;;;;5059779;28;20373;-62
2023/04/19 09:12:41;;;;;;;10.65;6.07;;;;;;;;;;5069850;28;20027;-54
2023/04/19 09:15:07;;;;;;;16.02;6.68;;;;;;;;;;5073104;28;21110;-60
2023/04/19 09:17:34;;;;;;;8.98;5.68;;;;;;;;;;5086856;28;20031;-59
2023/04/19 09:19:59;;;;;;;13.48;5.65;;;;;;;;;;5081978;28;20107;-57
2023/04/19 09:22:24;;;;;;;7.88;6.00;;;;;;;;;;5078997;28;20123;-56
2023/04/19 09:24:50;;;;;;;13.20;5.75;;;;;;;;;;5071437;28;20023;-57
2023/04/19 09:27:18;;;;;;;9.20;6.00;;;;;;;;;;5088214;28;20024;-52
2023/04/19 09:29:51;;;;;;;12.27;6.33;;;;;;;;;;5077619;28;20039;-54
2023/04/19 09:32:16;;;;;;;12.55;7.35;;;;;;;;;;5071185;28;20031;-57
2023/04/19 09:34:52;;;;;;;12.10;6.30;;;;;;;;;;5063912;28;20030;-54
2023/04/19 09:37:17;;;;;;;8.18;5.50;;;;;;;;;;5080410;28;20277;-55
2023/04/19 09:39:42;;;;;;;10.00;5.97;;;;;;;;;;5085004;28;20055;-49
2023/04/19 09:42:08;;;;;;;13.13;7.28;;;;;;;;;;5082409;28;20044;-57
2023/04/19 09:44:34;;;;;;;9.32;5.82;;;;;;;;;;5084840;28;20025;-54
2023/04/19 09:46:59;;;;;;;16.50;6.60;;;;;;;;;;5085170;28;20028;-55
2023/04/19 09:49:26;;;;;;;11.05;6.18;;;;;;;;;;5087876;28;20026;-52
2023/04/19 09:51:55;;;;;;;12.35;7.82;;;;;;;;;;5088979;28;20448;-55
2023/04/19 09:54:24;;;;;;;10.07;5.63;;;;;;;;;;5086003;28;20099;-52
2023/04/19 09:56:49;;;;;;;;;;;;;;;;;;5088423;28;20032;-49
2023/04/19 09:59:15;;;;;;;15.90;6.80;;;;;;;;;;5092152;28;20412;-52
2023/04/19 10:01:40;;;;;;;10.10;5.80;;;;;;;;;;5084626;28;20471;-51
2023/04/19 10:04:06;;;;;;;12.35;6.93;;;;;;;;;;5094138;28;20024;-49
2023/04/19 10:06:31;;;;;;;10.98;5.95;;;;;;;;;;5089720;28;20046;-54
2023/04/19 10:08:59;;;;;;;17.00;7.47;;;;;;;;;;5088009;28;20109;-57
2023/04/19 10:11:26;;;;;;;17.77;7.82;;;;;;;;;;5090535;28;20020;-53
2023/04/19 10:13:55;;;;;;;10.05;5.97;;;;;;;;;;5088096;28;20020;-58
2023/04/19 10:16:20;;;;;;;12.30;6.60;;;;;;;;;;5091499;28;20442;-57
2023/04/19 10:18:46;;;;;;;12.27;6.70;;;;;;;;;;5087861;28;20032;-57
2023/04/19 10:21:12;;;;;;;10.88;6.55;;;;;;;;;;5087727;28;20413;-56
2023/04/19 10:23:37;;;;;;;11.90;6.90;;;;;;;;;;5092082;28;20028;-53
2023/04/19 10:26:03;;;;;;;18.48;7.22;;;;;;;;;;5087799;28;20027;-54
2023/04/19 10:28:33;;;;;;;9.73;6.43;;;;;;;;;;5086661;28;20063;-58
2023/04/19 10:31:02;;;;;;;12.63;6.70;;;;;;;;;;5088468;28;20111;-58
2023/04/19 10:33:33;;;;;;;12.23;6.75;;;;;;;;;;5085405;28;20567;-57
2023/04/19 10:35:59;;;;;;;7.07;5.35;;;;;;;;;;5076346;28;20020;-57
2023/04/19 10:38:42;;;;;;;12.35;6.55;;;;;;;;;;5081952;28;20026;-57
2023/04/19 10:41:13;;;;;;;13.90;7.22;;;;;;;;;;5081036;28;20020;-58
2023/04/19 10:43:39;;;;;;;21.08;7.47;;;;;;;;;;5090845;28;20823;-64
2023/04/19 10:46:05;;;;;;;32.63;14.23;;;;;;;;;;5074076;28;20020;-63
2023/04/19 10:48:34;;;;;;;65.43;59.97;;;;;;;;;;5080544;28;20038;-59
2023/04/19 10:51:01;;;;;;;52.35;39.78;;;;;;;;;;5082620;28;20020;-54
2023/04/19 10:53:45;;;;;;;106.32;99.88;;;;;;;;;;5080143;28;20398;-60
2023/04/19 10:56:11;;;;;;;332.67;311.38;;;;;;;;;;5092975;28;20477;-56
2023/04/19 10:58:55;;;;;;;764.28;554.70;;;;;;;;;;5099089;28;20674;-59
2023/04/19 11:01:38;;;;;;;717.65;250.32;;;;;;;;;;5077858;28;20028;-56
2023/04/19 11:04:11;;;;;;;674.97;264.02;;;;;;;;;;5080748;28;20110;-57
2023/04/19 11:06:52;;;;;;;278.73;121.97;;;;;;;;;;5074540;28;20025;-57
2023/04/19 11:09:23;;;;;;;233.55;209.55;;;;;;;;;;5075021;28;20071;-57
2023/04/19 11:11:49;;;;;;;14.38;7.07;;;;;;;;;;5094227;28;20024;-58
2023/04/19 11:14:15;;;;;;;285.25;260.23;;;;;;;;;;5082081;28;20020;-55
2023/04/19 11:16:41;;;;;;;9.60;5.20;;;;;;;;;;5086660;28;20442;-57
2023/04/19 11:19:06;;;;;;;8.75;5.05;;;;;;;;;;5066717;28;20021;-54
2023/04/19 11:21:32;;;;;;;10.52;5.45;;;;;;;;;;5088744;28;20027;-59
2023/04/19 11:24:07;;;;;;;9.27;4.88;;;;;;;;;;5097084;28;20380;-56
2023/04/19 11:26:32;;;;;;;16.70;5.68;;;;;;;;;;5083673;28;20020;-54
2023/04/19 11:28:57;;;;;;;9.53;5.47;;;;;;;;;;5072421;28;20051;-58
2023/04/19 11:31:23;;;;;;;28.38;7.13;;;;;;;;;;5073674;28;20260;-58
2023/04/19 11:33:48;;;;;;;44.33;8.00;;;;;;;;;;5075152;28;20030;-58
2023/04/19 11:36:13;;;;;;;25.40;6.18;;;;;;;;;;5069534;28;20028;-57
2023/04/19 11:38:39;;;;;;;80.35;43.33;;;;;;;;;;5069290;28;20028;-59
2023/04/19 11:41:04;;;;;;;17.20;6.53;;;;;;;;;;5070066;28;20060;-58
2023/04/19 11:43:36;;;;;;;14.73;7.38;;;;;;;;;;5082967;28;20036;-57
2023/04/19 11:46:09;;;;;;;12.48;7.20;;;;;;;;;;5080025;28;20032;-59
2023/04/19 11:48:34;;;;;;;64.13;36.08;;;;;;;;;;5065705;28;20115;-62
2023/04/19 11:51:00;;;;;;;127.38;113.10;;;;;;;;;;5072639;28;20415;-60
2023/04/19 11:53:26;;;;;;;64.65;58.13;;;;;;;;;;5085205;28;20023;-58
2023/04/19 11:56:05;;;;;;;15.98;5.13;;;;;;;;;;5067284;28;20094;-63
2023/04/19 11:58:50;;;;;;;8.45;4.97;;;;;;;;;;5064745;28;20025;-62
2023/04/19 12:01:16;;;;;;;13.70;5.43;;;;;;;;;;5075888;28;20076;-62
2023/04/19 12:03:45;;;;;;;39.45;9.00;;;;;;;;;;5071743;28;20036;-60
2023/04/19 12:06:12;;;;;;;39.13;8.13;;;;;;;;;;5065812;28;20030;-61
2023/04/19 12:08:41;;;;;;;17.30;5.75;;;;;;;;;;5066823;28;20151;-59
2023/04/19 12:11:06;;;;;;;10.45;5.72;;;;;;;;;;5079399;28;20023;-59
2023/04/19 12:13:32;;;;;;;12.82;6.15;;;;;;;;;;5079777;28;20028;-56
2023/04/19 12:15:59;;;;;;;51.00;38.65;;;;;;;;;;5081200;28;20043;-61
2023/04/19 12:18:25;;;;;;;608.53;333.20;;;;;;;;;;5083417;28;20375;-58
2023/04/19 12:20:50;;;;;;;16.10;6.10;;;;;;;;;;5081751;28;20058;-60
2023/04/19 12:23:17;;;;;;;15.60;5.57;;;;;;;;;;5081275;28;20036;-57
2023/04/19 12:25:43;;;;;;;12.43;5.50;;;;;;;;;;5082326;28;20032;-58
2023/04/19 12:28:09;;;;;;;16.20;5.70;;;;;;;;;;5079320;28;20053;-57
2023/04/19 12:30:35;;;;;;;15.00;7.10;;;;;;;;;;5077652;28;20032;-58
2023/04/19 12:33:00;;;;;;;15.85;5.97;;;;;;;;;;5074106;28;20031;-60
2023/04/19 12:35:29;;;;;;;10.98;5.95;;;;;;;;;;5080909;28;20024;-59
2023/04/19 12:37:55;;;;;;;15.77;6.30;;;;;;;;;;5086825;28;20028;-61
2023/04/19 12:40:20;;;;;;;13.50;6.13;;;;;;;;;;5072634;28;20025;-61
2023/04/19 12:42:45;;;;;;;16.55;6.97;;;;;;;;;;5073975;28;20055;-59
2023/04/19 12:45:11;;;;;;;15.05;6.35;;;;;;;;;;5065262;28;20442;-60
2023/04/19 12:47:37;;;;;;;15.25;6.45;;;;;;;;;;5065096;28;20108;-60
2023/04/19 12:50:02;;;;;;;12.85;6.28;;;;;;;;;;5066241;28;20525;-60
2023/04/19 12:52:28;;;;;;;18.67;8.10;;;;;;;;;;5074689;28;20043;-67
2023/04/19 12:54:53;;;;;;;14.57;6.60;;;;;;;;;;5076365;28;20073;-60
2023/04/19 12:57:18;;;;;;;13.75;5.05;;;;;;;;;;5081610;28;20067;-63
2023/04/19 12:59:43;;;;;;;15.30;6.77;;;;;;;;;;5085543;28;20035;-64
2023/04/19 13:02:09;;;;;;;15.45;5.70;;;;;;;;;;5070325;28;20277;-66
2023/04/19 13:04:34;;;;;;;26.02;8.30;;;;;;;;;;5078936;28;20644;-64
2023/04/19 13:07:00;;;;;;;10.68;5.47;;;;;;;;;;5070331;28;20099;-63
2023/04/19 13:09:28;;;;;;;15.88;6.45;;;;;;;;;;5071197;28;20457;-64
2023/04/19 13:11:53;;;;;;;14.80;5.85;;;;;;;;;;5072691;28;20118;-64
2023/04/19 13:14:19;;;;;;;17.00;8.15;;;;;;;;;;5082641;28;20102;-66
2023/04/19 13:16:44;;;;;;;10.50;6.07;;;;;;;;;;5064730;28;20476;-64
2023/04/19 13:19:09;;;;;;;17.27;6.63;;;;;;;;;;5080969;28;20036;-64
2023/04/19 13:21:35;;;;;;;18.15;8.05;;;;;;;;;;5071455;28;20556;-60
2023/04/19 13:24:00;;;;;;;18.83;8.17;;;;;;;;;;5062242;28;20028;-59
2023/04/19 13:26:25;;;;;;;24.97;13.80;;;;;;;;;;5068379;28;20282;-59
2023/04/19 13:28:52;;;;;;;25.00;10.20;;;;;;;;;;5063203;28;20337;-57
2023/04/19 13:31:17;;;;;;;14.95;7.22;;;;;;;;;;5081032;28;20032;-57
2023/04/19 13:33:42;;;;;;;29.38;9.73;;;;;;;;;;5076929;28;20509;-56
2023/04/19 13:36:07;;;;;;;24.13;18.95;;;;;;;;;;5069657;28;20040;-51
2023/04/19 13:38:33;;;;;;;29.90;27.08;;;;;;;;;;5068072;28;20184;-55
2023/04/19 13:40:58;;;;;;;65.15;59.92;;;;;;;;;;5073236;28;20029;-55
2023/04/19 13:43:24;;;;;;;66.38;61.38;;;;;;;;;;5071229;28;20111;-52
2023/04/19 13:45:49;;;;;;;114.47;106.15;;;;;;;;;;5071223;28;20500;-51
2023/04/19 13:48:14;;;;;;;101.32;94.50;;;;;;;;;;5070686;28;20068;-57
2023/04/19 13:50:40;;;;;;;137.80;129.05;;;;;;;;;;5078726;28;20073;-57
2023/04/19 13:53:05;;;;;;;233.82;219.07;;;;;;;;;;5080583;28;20806;-53
2023/04/19 13:55:30;;;;;;;201.95;188.88;;;;;;;;;;5080126;28;20111;-58
2023/04/19 13:57:56;;;;;;;322.23;301.52;;;;;;;;;;5103671;28;20024;-58
2023/04/19 14:00:21;;;;;;;407.33;378.02;;;;;;;;;;5088972;28;20338;-54
2023/04/19 14:02:46;;;;;;;465.40;428.13;;;;;;;;;;5080577;28;20078;-55
2023/04/19 14:05:12;;;;;;;611.55;418.20;;;;;;;;;;5086017;28;20032;-57
2023/04/19 14:07:40;;;;;;;479.63;421.08;;;;;;;;;;5089298;28;20394;-55
2023/04/19 14:10:06;;;;;;;420.37;365.10;;;;;;;;;;5081261;28;20447;-56
2023/04/19 14:12:31;;;;;;;329.58;308.75;;;;;;;;;;5073303;28;20264;-58
2023/04/19 14:14:56;;;;;;;336.67;313.48;;;;;;;;;;5091341;28;20016;-57
2023/04/19 14:17:22;;;;;;;368.90;344.17;;;;;;;;;;5077741;28;20468;-54
2023/04/19 14:19:47;;;;;;;451.35;418.45;;;;;;;;;;5076595;28;20012;-55
2023/04/19 14:22:12;;;;;;;718.83;458.30;;;;;;;;;;5082404;28;20066;-56
2023/04/19 14:24:37;;;;;;;18.45;10.70;;;;;;;;;;5098700;28;20027;-57
2023/04/19 14:27:03;;;;;;;12.32;6.10;;;;;;;;;;5087518;28;20254;-55
2023/04/19 14:29:28;;;;;;;15.90;6.73;;;;;;;;;;5075608;28;20534;-55